createdAt,value
2023-02-02T00:00:42.117Z,2.60
2023-02-02T00:05:49.327Z,2.57
2023-02-02T00:10:52.052Z,2.56
2023-02-02T00:15:55.060Z,2.62
2023-02-02T00:20:59.221Z,2.67
2023-02-02T00:26:01.985Z,2.68
2023-02-02T00:31:04.908Z,2.66
2023-02-02T00:36:09.621Z,2.66
2023-02-02T00:41:12.341Z,2.71
2023-02-02T00:46:18.888Z,2.71
2023-02-02T00:51:23.325Z,2.69
2023-02-02T00:56:26.307Z,2.64
2023-02-02T01:01:29.377Z,2.59
2023-02-02T01:06:33.496Z,2.62
2023-02-02T01:11:37.865Z,2.62
2023-02-02T01:16:40.817Z,2.60
2023-02-02T01:21:45.931Z,2.59
2023-02-02T01:26:48.702Z,2.57
2023-02-02T01:31:51.651Z,2.57
2023-02-02T01:36:55.767Z,2.58
2023-02-02T01:41:58.594Z,2.56
2023-02-02T01:47:01.718Z,2.53
2023-02-02T01:52:06.889Z,2.52
2023-02-02T01:57:14.747Z,2.51
2023-02-02T02:02:17.654Z,2.49
2023-02-02T02:07:21.927Z,2.43
2023-02-02T02:12:26.484Z,2.45
2023-02-02T02:17:41.751Z,2.46
2023-02-02T02:23:19.743Z,2.47
2023-02-02T02:28:49.073Z,2.46
2023-02-02T02:33:58.645Z,2.44
2023-02-02T02:39:06.450Z,2.48
2023-02-02T02:44:12.744Z,2.50
2023-02-02T02:49:16.875Z,2.54
2023-02-02T02:54:23.835Z,2.58
2023-02-02T02:59:35.398Z,2.62
2023-02-02T03:04:45.193Z,2.69
2023-02-02T03:09:49.155Z,2.76
2023-02-02T03:14:51.874Z,2.79
2023-02-02T03:19:55.937Z,2.80
2023-02-02T03:24:59.576Z,2.82
2023-02-02T03:30:02.357Z,2.81
2023-02-02T03:35:07.369Z,2.75
2023-02-02T03:40:11.486Z,2.74
2023-02-02T03:45:14.287Z,2.80
2023-02-02T03:50:18.834Z,2.83
2023-02-02T03:55:21.841Z,2.83
2023-02-02T04:00:24.853Z,2.86
2023-02-02T04:05:29.082Z,2.86
2023-02-02T04:10:31.808Z,2.83
2023-02-02T04:15:34.706Z,2.76
2023-02-02T04:20:38.856Z,2.81
2023-02-02T04:25:50.123Z,2.81
2023-02-02T04:30:53.240Z,2.80
2023-02-02T04:35:57.414Z,2.83
2023-02-02T04:41:00.243Z,2.82
2023-02-02T04:46:06.866Z,2.84
2023-02-02T04:51:12.234Z,2.86
2023-02-02T04:56:16.461Z,2.94
2023-02-02T05:01:20.863Z,2.94
2023-02-02T05:06:25.202Z,2.91
2023-02-02T05:11:27.943Z,2.94
2023-02-02T05:16:30.899Z,2.92
2023-02-02T05:21:34.946Z,2.92
2023-02-02T05:26:37.758Z,2.92
2023-02-02T05:31:40.624Z,2.93
2023-02-02T05:36:44.724Z,2.92
2023-02-02T05:41:47.588Z,2.97
2023-02-02T05:46:50.303Z,3.03
2023-02-02T05:51:56.094Z,3.10
2023-02-02T05:57:01.139Z,3.12
2023-02-02T06:02:04.042Z,3.25
2023-02-02T06:07:08.380Z,3.63
2023-02-02T06:12:11.231Z,3.78
2023-02-02T06:17:13.966Z,3.85
2023-02-02T06:22:17.981Z,3.86
2023-02-02T06:27:20.836Z,3.86
2023-02-02T06:32:23.605Z,3.88
2023-02-02T06:37:30.576Z,3.92
2023-02-02T06:42:34.127Z,3.94
2023-02-02T06:47:36.845Z,3.97
2023-02-02T06:52:40.989Z,3.99
2023-02-02T06:57:43.712Z,4.01
2023-02-02T07:02:46.892Z,3.98
2023-02-02T07:07:51.480Z,4.00
2023-02-02T07:12:55.092Z,4.02
2023-02-02T07:17:57.866Z,4.06
2023-02-02T07:23:04.447Z,4.11
2023-02-02T07:28:07.373Z,4.15
2023-02-02T07:33:10.356Z,4.18
2023-02-02T07:38:14.431Z,4.23
2023-02-02T07:43:19.326Z,4.28
2023-02-02T07:48:22.219Z,4.32
2023-02-02T07:53:26.390Z,4.36
2023-02-02T07:58:29.114Z,4.39
2023-02-02T08:03:31.851Z,4.44
2023-02-02T08:08:35.935Z,4.52
2023-02-02T08:13:39.299Z,4.55
2023-02-02T08:18:42.263Z,4.55
2023-02-02T08:23:46.845Z,4.62
2023-02-02T08:28:52.694Z,4.77
2023-02-02T08:33:55.496Z,4.87
2023-02-02T08:39:03.376Z,4.87
2023-02-02T08:44:07.812Z,4.84
2023-02-02T08:49:14.464Z,4.89
2023-02-02T08:54:18.592Z,4.91
2023-02-02T08:59:21.338Z,4.90
2023-02-02T09:04:24.168Z,4.96
2023-02-02T09:09:28.254Z,5.00
2023-02-02T09:14:31.400Z,4.99
2023-02-02T09:19:34.104Z,5.01
2023-02-02T09:24:38.216Z,5.10
2023-02-02T09:29:41.194Z,5.10
2023-02-02T09:34:44.028Z,5.21
2023-02-02T09:39:48.351Z,5.29
2023-02-02T09:45:03.443Z,5.34
2023-02-02T09:50:19.223Z,5.37
2023-02-02T09:55:30.046Z,5.43
2023-02-02T10:00:35.919Z,5.46
2023-02-02T10:05:47.545Z,5.50
2023-02-02T10:10:52.200Z,5.43
2023-02-02T10:16:04.196Z,5.40
2023-02-02T10:21:09.937Z,5.39
2023-02-02T10:26:19.063Z,5.48
2023-02-02T10:31:30.724Z,5.55
2023-02-02T10:36:41.560Z,5.63
2023-02-02T10:41:52.839Z,5.64
2023-02-02T10:46:56.866Z,5.59
2023-02-02T10:52:05.281Z,5.55
2023-02-02T10:57:12.997Z,5.50
2023-02-02T11:02:21.065Z,5.43
2023-02-02T11:07:24.243Z,5.35
2023-02-02T11:12:32.339Z,5.41
2023-02-02T11:17:36.195Z,5.41
2023-02-02T11:22:39.640Z,5.41
2023-02-02T11:27:44.849Z,5.35
2023-02-02T11:32:49.480Z,5.38
2023-02-02T11:38:02.116Z,5.43
2023-02-02T11:43:15.248Z,5.60
2023-02-02T11:48:19.788Z,5.70
2023-02-02T11:53:28.077Z,5.70
2023-02-02T11:58:44.931Z,5.71
2023-02-02T12:03:48.990Z,5.75
2023-02-02T12:08:54.905Z,5.77
2023-02-02T12:14:11.995Z,5.71
2023-02-02T12:19:32.654Z,5.68
2023-02-02T12:24:36.894Z,5.55
2023-02-02T12:29:52.620Z,5.54
2023-02-02T12:35:13.294Z,5.60
2023-02-02T12:40:32.471Z,5.64
2023-02-02T12:45:47.998Z,6.27
2023-02-02T12:50:59.211Z,6.20
2023-02-02T12:56:08.233Z,5.98
2023-02-02T13:01:24.223Z,5.75
2023-02-02T13:06:52.381Z,5.70
2023-02-02T13:12:02.053Z,5.80
2023-02-02T13:17:11.881Z,6.02
2023-02-02T13:22:17.645Z,6.26
2023-02-02T13:27:21.478Z,6.10
2023-02-02T13:32:28.104Z,6.28
2023-02-02T13:37:37.241Z,6.43
2023-02-02T13:42:45.217Z,6.45
2023-02-02T13:47:54.105Z,6.25
2023-02-02T13:53:14.230Z,6.11
2023-02-02T13:58:37.636Z,6.01
2023-02-02T14:03:43.322Z,5.84
2023-02-02T14:08:49.250Z,5.82
2023-02-02T14:14:11.070Z,5.79
2023-02-02T14:19:22.343Z,5.67
2023-02-02T14:24:40.860Z,5.61
2023-02-02T14:30:00.032Z,5.53
2023-02-02T14:35:36.398Z,5.42
2023-02-02T14:40:49.872Z,5.53
2023-02-02T14:46:24.365Z,5.52
2023-02-02T14:51:30.167Z,5.58
2023-02-02T14:56:49.610Z,5.65
2023-02-02T15:02:02.650Z,5.64
2023-02-02T15:07:39.364Z,5.59
2023-02-02T15:12:45.851Z,5.55
2023-02-02T15:18:01.345Z,5.48
2023-02-02T15:23:07.182Z,5.35
2023-02-02T15:28:18.829Z,5.21
2023-02-02T15:33:27.329Z,5.17
2023-02-02T15:38:34.782Z,5.09
2023-02-02T15:43:39.697Z,4.97
2023-02-02T15:48:43.684Z,4.83
2023-02-02T15:53:49.272Z,4.72
2023-02-02T15:58:54.834Z,4.76
2023-02-02T16:04:02.924Z,4.74
2023-02-02T16:09:06.940Z,4.73
2023-02-02T16:14:17.685Z,4.69
2023-02-02T16:19:22.210Z,4.64
2023-02-02T16:24:27.092Z,4.52
2023-02-02T16:29:31.622Z,4.41
2023-02-02T16:34:47.548Z,4.35
2023-02-02T16:39:50.497Z,4.23
2023-02-02T16:44:55.501Z,4.22
2023-02-02T16:50:20.344Z,4.19
2023-02-02T16:55:24.076Z,4.20
2023-02-02T17:00:30.083Z,4.23
2023-02-02T17:05:34.011Z,4.32
2023-02-02T17:10:38.243Z,4.40
2023-02-02T17:15:42.451Z,4.40
2023-02-02T17:20:45.432Z,4.41
2023-02-02T17:25:48.790Z,4.33
2023-02-02T17:30:55.627Z,4.26
2023-02-02T17:35:58.447Z,4.16
2023-02-02T17:41:02.620Z,4.07
2023-02-02T17:46:06.889Z,3.99
2023-02-02T17:51:15.751Z,3.93
2023-02-02T17:56:18.980Z,3.89
2023-02-02T18:01:23.405Z,3.89
2023-02-02T18:06:26.260Z,3.85
2023-02-02T18:11:30.026Z,3.79
2023-02-02T18:16:34.297Z,3.71
2023-02-02T18:21:37.698Z,3.74
2023-02-02T18:26:40.595Z,3.69
2023-02-02T18:31:44.968Z,3.69
2023-02-02T18:36:47.788Z,3.67
2023-02-02T18:41:50.722Z,3.68
2023-02-02T18:46:54.853Z,3.69
2023-02-02T18:51:57.611Z,3.63
2023-02-02T18:57:00.465Z,3.60
2023-02-02T19:02:04.674Z,3.63
2023-02-02T19:07:25.311Z,3.59
2023-02-02T19:12:29.308Z,3.62
2023-02-02T19:17:33.992Z,3.56
2023-02-02T19:22:36.793Z,3.60
2023-02-02T19:27:39.845Z,3.72
2023-02-02T19:32:44.283Z,3.67
2023-02-02T19:37:48.426Z,3.66
2023-02-02T19:42:56.444Z,3.58
2023-02-02T19:48:02.450Z,3.59
2023-02-02T19:53:14.745Z,3.66
2023-02-02T19:58:20.508Z,3.62
2023-02-02T20:03:27.566Z,3.68
2023-02-02T20:08:34.396Z,3.69
2023-02-02T20:13:41.759Z,3.82
2023-02-02T20:18:50.755Z,3.97
2023-02-02T20:23:53.715Z,3.96
2023-02-02T20:28:57.988Z,3.95
2023-02-02T20:34:02.311Z,3.90
2023-02-02T20:39:22.066Z,3.86
2023-02-02T20:44:29.094Z,3.75
2023-02-02T20:49:33.429Z,3.76
2023-02-02T20:54:36.201Z,3.74
2023-02-02T20:59:38.940Z,3.78
2023-02-02T21:04:46.719Z,3.86
2023-02-02T21:09:50.985Z,3.97
2023-02-02T21:14:54.110Z,3.93
2023-02-02T21:19:58.355Z,3.99
2023-02-02T21:25:01.144Z,4.03
2023-02-02T21:30:04.425Z,4.10
2023-02-02T21:35:09.102Z,4.11
2023-02-02T21:40:14.416Z,4.13
2023-02-02T21:45:34.295Z,4.10
2023-02-02T21:50:42.051Z,4.03
2023-02-02T21:55:45.100Z,3.92
2023-02-02T22:00:48.492Z,3.88
2023-02-02T22:05:52.714Z,3.88
2023-02-02T22:10:55.476Z,3.94
2023-02-02T22:15:58.338Z,3.89
2023-02-02T22:21:02.431Z,3.81
2023-02-02T22:26:05.431Z,3.77
2023-02-02T22:31:08.257Z,3.79
2023-02-02T22:36:12.556Z,3.72
2023-02-02T22:41:15.640Z,3.77
2023-02-02T22:46:18.427Z,3.76
2023-02-02T22:51:22.566Z,3.76
2023-02-02T22:56:26.136Z,3.79
2023-02-02T23:01:28.940Z,3.79
2023-02-02T23:06:33.008Z,3.82
2023-02-02T23:11:35.774Z,3.92
2023-02-02T23:16:38.581Z,3.96
2023-02-02T23:21:42.838Z,3.98
2023-02-02T23:26:45.624Z,3.93
2023-02-02T23:31:48.443Z,3.87
2023-02-02T23:36:53.573Z,3.79
2023-02-02T23:41:56.402Z,3.68
2023-02-02T23:46:59.539Z,3.70
2023-02-02T23:52:03.898Z,3.69
2023-02-02T23:57:06.625Z,3.60
